Time;durP1;ratioP1;P1;durP2;ratioP2;P2;SDS_P1;SDS_P2;PMS_P1;PMS_P2;Temp;Humidity;BMP_temperature;BMP_pressure;BME280_temperature;BME280_humidity;BME280_pressure;Samples;Min_cycle;Max_cycle;Signal;HPM_P1;HPM_P2
2023/11/03 00:02:08;;;;;;;0.10;0.10;;;;;;;;;;5034076;28;20049;-88
2023/11/03 00:04:38;;;;;;;0.10;0.10;;;;;;;;;;5017272;28;20090;-87
2023/11/03 00:07:04;;;;;;;0.10;0.10;;;;;;;;;;5001603;28;20124;-87
2023/11/03 00:09:33;;;;;;;0.10;0.10;;;;;;;;;;5017322;28;20750;-88
2023/11/03 00:12:00;;;;;;;0.10;0.10;;;;;;;;;;5000960;28;20053;-87
2023/11/03 00:14:27;;;;;;;0.10;0.10;;;;;;;;;;5017225;28;20041;-88
2023/11/03 00:16:53;;;;;;;0.10;0.10;;;;;;;;;;5000993;28;20057;-86
2023/11/03 00:19:19;;;;;;;0.10;0.10;;;;;;;;;;5033492;28;20488;-87
2023/11/03 00:21:45;;;;;;;0.10;0.10;;;;;;;;;;5033576;28;20114;-88
2023/11/03 00:24:12;;;;;;;0.10;0.10;;;;;;;;;;5000924;28;20041;-87
2023/11/03 00:26:38;;;;;;;0.10;0.10;;;;;;;;;;5017605;28;20542;-88
2023/11/03 00:29:07;;;;;;;0.10;0.10;;;;;;;;;;5033291;28;20037;-88
2023/11/03 00:31:33;;;;;;;0.10;0.10;;;;;;;;;;5016902;28;20045;-88
2023/11/03 00:33:59;;;;;;;0.10;0.10;;;;;;;;;;5016871;28;20088;-87
2023/11/03 00:36:25;;;;;;;0.10;0.10;;;;;;;;;;5033299;28;20041;-87
2023/11/03 00:38:51;;;;;;;0.10;0.10;;;;;;;;;;5017053;28;20053;-87
2023/11/03 00:41:17;;;;;;;0.10;0.10;;;;;;;;;;5033518;28;20145;-87
2023/11/03 00:43:44;;;;;;;0.10;0.10;;;;;;;;;;5033199;28;20050;-87
2023/11/03 00:46:10;;;;;;;0.10;0.10;;;;;;;;;;5016914;28;20045;-87
2023/11/03 00:48:36;;;;;;;0.10;0.10;;;;;;;;;;5000309;28;20037;-87
2023/11/03 00:51:04;;;;;;;0.10;0.10;;;;;;;;;;5000305;28;20041;-87
2023/11/03 00:53:31;;;;;;;0.10;0.10;;;;;;;;;;5016604;28;20045;-89
2023/11/03 00:55:57;;;;;;;0.10;0.10;;;;;;;;;;5000523;28;20384;-87
2023/11/03 00:58:23;;;;;;;0.10;0.10;;;;;;;;;;5016494;28;20045;-87
2023/11/03 01:00:49;;;;;;;0.10;0.10;;;;;;;;;;5016331;28;20045;-88
2023/11/03 01:03:16;;;;;;;0.10;0.10;;;;;;;;;;5032890;28;20128;-87
2023/11/03 01:05:44;;;;;;;0.10;0.10;;;;;;;;;;5000452;28;20042;-88
2023/11/03 01:08:10;;;;;;;0.10;0.10;;;;;;;;;;5016751;28;20049;-87
2023/11/03 01:10:36;;;;;;;0.10;0.10;;;;;;;;;;5016371;28;20115;-88
2023/11/03 01:13:09;;;;;;;0.17;0.17;;;;;;;;;;5032730;28;20107;-87
2023/11/03 01:15:35;;;;;;;0.10;0.10;;;;;;;;;;5017167;28;20323;-88
2023/11/03 01:18:02;;;;;;;0.10;0.10;;;;;;;;;;5016249;28;20100;-89
2023/11/03 01:20:28;;;;;;;0.10;0.10;;;;;;;;;;5016054;28;20045;-88
2023/11/03 01:22:54;;;;;;;0.20;0.20;;;;;;;;;;5032510;28;20037;-88
2023/11/03 01:25:23;;;;;;;0.10;0.10;;;;;;;;;;5015985;28;20041;-88
2023/11/03 01:27:50;;;;;;;0.10;0.10;;;;;;;;;;5016600;28;20037;-90
2023/11/03 01:30:20;;;;;;;0.20;0.20;;;;;;;;;;5015796;28;20499;-88
2023/11/03 01:32:46;;;;;;;0.10;0.10;;;;;;;;;;5032266;28;20042;-87
2023/11/03 01:35:12;;;;;;;0.10;0.10;;;;;;;;;;5032667;28;20537;-87
2023/11/03 01:37:38;;;;;;;0.20;0.20;;;;;;;;;;5015786;28;20128;-87
2023/11/03 01:40:08;;;;;;;0.10;0.10;;;;;;;;;;5015743;28;20046;-87
2023/11/03 01:42:37;;;;;;;0.10;0.10;;;;;;;;;;4999711;28;20052;-88
2023/11/03 01:45:06;;;;;;;0.10;0.10;;;;;;;;;;5015597;28;20045;-88
2023/11/03 01:47:33;;;;;;;0.10;0.10;;;;;;;;;;5015928;28;20041;-88
2023/11/03 01:49:59;;;;;;;0.10;0.10;;;;;;;;;;5015278;28;20054;-88
2023/11/03 01:52:25;;;;;;;0.10;0.10;;;;;;;;;;5015489;28;20443;-87
2023/11/03 01:54:51;;;;;;;0.10;0.10;;;;;;;;;;4999097;28;20041;-88
2023/11/03 01:57:18;;;;;;;0.10;0.10;;;;;;;;;;5015448;28;20044;-87
2023/11/03 01:59:44;;;;;;;0.10;0.10;;;;;;;;;;4999138;28;20045;-87
2023/11/03 02:02:10;;;;;;;0.10;0.10;;;;;;;;;;5015628;28;20475;-88
2023/11/03 02:04:36;;;;;;;0.10;0.10;;;;;;;;;;5014794;28;20061;-87
2023/11/03 02:07:02;;;;;;;0.10;0.10;;;;;;;;;;5015254;28;20443;-87
2023/11/03 02:09:28;;;;;;;0.10;0.10;;;;;;;;;;4998637;28;20073;-87
2023/11/03 02:11:54;;;;;;;0.13;0.13;;;;;;;;;;5031208;28;20049;-88
2023/11/03 02:14:20;;;;;;;0.10;0.10;;;;;;;;;;5031422;28;20489;-88
2023/11/03 02:16:47;;;;;;;0.10;0.10;;;;;;;;;;4998877;28;20480;-88
2023/11/03 02:19:13;;;;;;;0.10;0.10;;;;;;;;;;4998780;28;20037;-88
2023/11/03 02:21:39;;;;;;;0.10;0.10;;;;;;;;;;4998636;28;20499;-88
2023/11/03 02:24:05;;;;;;;0.17;0.17;;;;;;;;;;4998593;28;20086;-87
2023/11/03 02:26:31;;;;;;;0.10;0.10;;;;;;;;;;5014944;28;20041;-87
2023/11/03 02:28:57;;;;;;;0.10;0.10;;;;;;;;;;5014765;28;20041;-87
2023/11/03 02:31:24;;;;;;;0.10;0.10;;;;;;;;;;5014830;28;20053;-87
2023/11/03 02:33:50;;;;;;;0.10;0.10;;;;;;;;;;5031122;28;20037;-87
2023/11/03 02:36:16;;;;;;;0.10;0.10;;;;;;;;;;5015148;28;20404;-86
2023/11/03 02:38:43;;;;;;;0.10;0.10;;;;;;;;;;5014536;28;20048;-88
2023/11/03 02:41:09;;;;;;;0.10;0.10;;;;;;;;;;5030987;28;20045;-88
2023/11/03 02:43:34;;;;;;;0.10;0.10;;;;;;;;;;5031090;28;20037;-87
2023/11/03 02:46:00;;;;;;;0.10;0.10;;;;;;;;;;4998338;28;20104;-88
2023/11/03 02:48:26;;;;;;;0.10;0.10;;;;;;;;;;5014574;28;20095;-87
2023/11/03 02:50:52;;;;;;;0.10;0.10;;;;;;;;;;5014542;28;20128;-86
2023/11/03 02:53:18;;;;;;;0.10;0.10;;;;;;;;;;5030994;28;20052;-87
2023/11/03 02:55:44;;;;;;;0.10;0.10;;;;;;;;;;5031058;28;20649;-87
2023/11/03 02:58:10;;;;;;;0.10;0.10;;;;;;;;;;5031001;28;20053;-88
2023/11/03 03:00:36;;;;;;;0.10;0.10;;;;;;;;;;5014658;28;20041;-87
2023/11/03 03:03:05;;;;;;;0.10;0.10;;;;;;;;;;5014541;28;20049;-87
2023/11/03 03:05:32;;;;;;;0.10;0.10;;;;;;;;;;5014498;28;20480;-87
2023/11/03 03:07:58;;;;;;;0.10;0.10;;;;;;;;;;5014203;28;20060;-87
2023/11/03 03:10:24;;;;;;;0.10;0.10;;;;;;;;;;4997811;28;20476;-88
2023/11/03 03:12:50;;;;;;;0.10;0.10;;;;;;;;;;5014709;28;20049;-88
2023/11/03 03:15:16;;;;;;;0.10;0.10;;;;;;;;;;5014532;28;20038;-88
2023/11/03 03:17:42;;;;;;;0.10;0.10;;;;;;;;;;5034402;28;20037;-88
2023/11/03 03:20:08;;;;;;;0.10;0.10;;;;;;;;;;5018240;28;20045;-88
2023/11/03 03:22:34;;;;;;;0.10;0.10;;;;;;;;;;5034614;28;20048;-87
2023/11/03 03:25:00;;;;;;;0.10;0.10;;;;;;;;;;5034660;28;20515;-88
2023/11/03 03:27:26;;;;;;;0.10;0.10;;;;;;;;;;5018239;28;20503;-87
2023/11/03 03:29:52;;;;;;;0.10;0.10;;;;;;;;;;5034411;28;20045;-87
2023/11/03 03:32:18;;;;;;;0.10;0.10;;;;;;;;;;5018270;28;20037;-88
2023/11/03 03:34:44;;;;;;;0.10;0.10;;;;;;;;;;5018020;28;20072;-88
2023/11/03 03:37:13;;;;;;;0.15;0.15;;;;;;;;;;5034606;28;20042;-88
2023/11/03 03:39:39;;;;;;;0.10;0.10;;;;;;;;;;5034278;28;20510;-88
2023/11/03 03:42:06;;;;;;;0.30;0.30;;;;;;;;;;5001640;28;20120;-88
2023/11/03 03:44:33;;;;;;;0.10;0.10;;;;;;;;;;5001812;28;20048;-88
2023/11/03 03:46:59;;;;;;;0.10;0.10;;;;;;;;;;5034275;28;20046;-88
2023/11/03 03:49:25;;;;;;;0.20;0.20;;;;;;;;;;5001405;28;20044;-88
2023/11/03 03:51:51;;;;;;;0.10;0.10;;;;;;;;;;5034197;28;20056;-88
2023/11/03 03:54:17;;;;;;;0.10;0.10;;;;;;;;;;5001305;28;20116;-88
2023/11/03 03:56:43;;;;;;;0.10;0.10;;;;;;;;;;5017799;28;20077;-88
2023/11/03 03:59:09;;;;;;;0.20;0.20;;;;;;;;;;5017413;28;20071;-88
2023/11/03 04:01:35;;;;;;;0.10;0.10;;;;;;;;;;5001198;28;20080;-88
2023/11/03 04:04:01;;;;;;;0.10;0.10;;;;;;;;;;5033875;28;20400;-88
2023/11/03 04:06:27;;;;;;;0.10;0.10;;;;;;;;;;5017611;28;20049;-88
2023/11/03 04:08:53;;;;;;;0.20;0.20;;;;;;;;;;5017435;28;20564;-88
2023/11/03 04:11:19;;;;;;;0.10;0.10;;;;;;;;;;5001105;28;20055;-88
2023/11/03 04:13:45;;;;;;;0.10;0.10;;;;;;;;;;5017377;28;20431;-88
2023/11/03 04:16:11;;;;;;;0.40;0.40;;;;;;;;;;5033727;28;20095;-89
2023/11/03 04:18:39;;;;;;;0.10;0.10;;;;;;;;;;5033618;28;20071;-89
2023/11/03 04:21:05;;;;;;;0.10;0.10;;;;;;;;;;5017425;28;20128;-89
2023/11/03 04:23:31;;;;;;;0.10;0.10;;;;;;;;;;5001196;28;20384;-88
2023/11/03 04:25:57;;;;;;;0.10;0.10;;;;;;;;;;5000801;28;20520;-88
2023/11/03 04:28:23;;;;;;;0.10;0.10;;;;;;;;;;5016651;28;20046;-88
2023/11/03 04:30:50;;;;;;;0.20;0.20;;;;;;;;;;5000775;28;20038;-88
2023/11/03 04:33:16;;;;;;;0.10;0.10;;;;;;;;;;5017447;28;20033;-88
2023/11/03 04:35:42;;;;;;;0.20;0.20;;;;;;;;;;5016859;28;20573;-89
2023/11/03 04:38:09;;;;;;;0.10;0.10;;;;;;;;;;5033661;28;20064;-89
2023/11/03 04:40:35;;;;;;;0.10;0.10;;;;;;;;;;5016904;28;20492;-88
2023/11/03 04:43:01;;;;;;;0.20;0.20;;;;;;;;;;5016882;28;20044;-88
2023/11/03 04:45:27;;;;;;;0.10;0.10;;;;;;;;;;5000804;28;20041;-89
2023/11/03 04:47:54;;;;;;;0.10;0.10;;;;;;;;;;5016945;28;20405;-88
2023/11/03 04:50:20;;;;;;;0.10;0.10;;;;;;;;;;5016366;28;20412;-88
2023/11/03 04:52:46;;;;;;;0.10;0.10;;;;;;;;;;5016708;28;20041;-88
2023/11/03 04:55:12;;;;;;;0.20;0.20;;;;;;;;;;5016713;28;20044;-88
2023/11/03 04:57:38;;;;;;;0.10;0.10;;;;;;;;;;5016466;28;20045;-88
2023/11/03 05:00:08;;;;;;;0.10;0.10;;;;;;;;;;5000375;28;20049;-87
2023/11/03 05:02:35;;;;;;;0.10;0.10;;;;;;;;;;5017034;28;20558;-89
2023/11/03 05:05:01;;;;;;;0.10;0.10;;;;;;;;;;5000343;28;20045;-88
2023/11/03 05:07:27;;;;;;;0.10;0.10;;;;;;;;;;5000276;28;20102;-88
2023/11/03 05:09:53;;;;;;;0.10;0.10;;;;;;;;;;5016287;28;20466;-88
2023/11/03 05:12:19;;;;;;;0.10;0.10;;;;;;;;;;5016230;28;20057;-88
2023/11/03 05:14:45;;;;;;;0.10;0.10;;;;;;;;;;5016229;28;20092;-88
2023/11/03 05:17:11;;;;;;;0.25;0.20;;;;;;;;;;4999811;28;20063;-89
2023/11/03 05:19:37;;;;;;;0.10;0.10;;;;;;;;;;5032453;28;20041;-89
2023/11/03 05:22:03;;;;;;;0.10;0.10;;;;;;;;;;5016117;28;20444;-88
2023/11/03 05:24:29;;;;;;;0.10;0.10;;;;;;;;;;5016426;28;20493;-89
2023/11/03 05:26:55;;;;;;;0.10;0.10;;;;;;;;;;5016138;28;20044;-89
2023/11/03 05:29:23;;;;;;;0.10;0.10;;;;;;;;;;5015661;28;20051;-89
2023/11/03 05:31:50;;;;;;;0.10;0.10;;;;;;;;;;5016069;28;20193;-89
2023/11/03 05:34:16;;;;;;;0.10;0.10;;;;;;;;;;5015904;28;20044;-89
2023/11/03 05:36:42;;;;;;;0.10;0.10;;;;;;;;;;5015691;28;20473;-88
2023/11/03 05:39:08;;;;;;;0.17;0.17;;;;;;;;;;5015048;28;20048;-89
2023/11/03 05:41:34;;;;;;;0.10;0.10;;;;;;;;;;5015793;28;20087;-89
2023/11/03 05:44:00;;;;;;;0.10;0.10;;;;;;;;;;5015813;28;20421;-88
2023/11/03 05:46:26;;;;;;;0.20;0.20;;;;;;;;;;5015759;28;20132;-89
2023/11/03 05:48:52;;;;;;;0.30;0.30;;;;;;;;;;5015392;28;20052;-89
2023/11/03 05:51:21;;;;;;;0.10;0.10;;;;;;;;;;5015793;28;20084;-89
2023/11/03 05:53:48;;;;;;;0.10;0.10;;;;;;;;;;4999410;28;20079;-89
2023/11/03 05:56:13;;;;;;;0.10;0.10;;;;;;;;;;5015471;28;20033;-89
2023/11/03 05:58:39;;;;;;;0.10;0.10;;;;;;;;;;4999203;28;20103;-89
2023/11/03 06:01:06;;;;;;;0.10;0.10;;;;;;;;;;5015214;28;20480;-88
2023/11/03 06:03:32;;;;;;;0.10;0.10;;;;;;;;;;4998952;28;20049;-89
2023/11/03 06:05:58;;;;;;;0.10;0.10;;;;;;;;;;5031918;28;20041;-89
2023/11/03 06:08:24;;;;;;;0.10;0.10;;;;;;;;;;5015207;28;20400;-89
2023/11/03 06:10:50;;;;;;;0.10;0.10;;;;;;;;;;5014963;28;20061;-89
2023/11/03 06:13:17;;;;;;;0.10;0.10;;;;;;;;;;5015446;28;20049;-88
2023/11/03 06:15:43;;;;;;;0.15;0.15;;;;;;;;;;5015011;28;20475;-88
2023/11/03 06:18:09;;;;;;;0.10;0.10;;;;;;;;;;5015058;28;20042;-87
2023/11/03 06:20:35;;;;;;;0.10;0.10;;;;;;;;;;5015023;28;20056;-87
2023/11/03 06:23:01;;;;;;;0.10;0.10;;;;;;;;;;5014991;28;20042;-87
2023/11/03 06:25:29;;;;;;;0.10;0.10;;;;;;;;;;5015117;28;20041;-87
2023/11/03 06:27:55;;;;;;;0.10;0.10;;;;;;;;;;4998609;28;20128;-87
2023/11/03 06:30:21;;;;;;;0.10;0.10;;;;;;;;;;5014615;28;20470;-87
2023/11/03 06:32:47;;;;;;;0.10;0.10;;;;;;;;;;5014806;28;20045;-87
2023/11/03 06:35:13;;;;;;;0.10;0.10;;;;;;;;;;5031304;28;20196;-87
2023/11/03 06:37:40;;;;;;;0.20;0.20;;;;;;;;;;5031121;28;20112;-87
2023/11/03 06:40:10;;;;;;;0.10;0.10;;;;;;;;;;5014748;28;20059;-87
2023/11/03 06:42:36;;;;;;;0.30;0.30;;;;;;;;;;4998669;28;20045;-87
2023/11/03 06:45:03;;;;;;;0.17;0.17;;;;;;;;;;4998430;28;20464;-87
2023/11/03 06:47:29;;;;;;;0.10;0.10;;;;;;;;;;4998324;28;20121;-87
2023/11/03 06:49:54;;;;;;;0.10;0.10;;;;;;;;;;4997931;28;20176;-87
2023/11/03 06:52:21;;;;;;;0.10;0.10;;;;;;;;;;5030882;28;20046;-88
2023/11/03 06:54:46;;;;;;;0.10;0.10;;;;;;;;;;5014809;28;20034;-88
2023/11/03 06:57:13;;;;;;;0.10;0.10;;;;;;;;;;4998354;28;20060;-89
2023/11/03 06:59:39;;;;;;;0.30;0.30;;;;;;;;;;5014450;28;20037;-88
2023/11/03 07:02:05;;;;;;;0.10;0.10;;;;;;;;;;5014395;28;20099;-88
2023/11/03 07:04:32;;;;;;;0.10;0.10;;;;;;;;;;5030983;28;20154;-88
2023/11/03 07:06:59;;;;;;;2.08;0.32;;;;;;;;;;5014344;28;20120;-88
2023/11/03 07:09:24;;;;;;;0.10;0.10;;;;;;;;;;5030570;28;20079;-88
2023/11/03 07:11:51;;;;;;;0.10;0.10;;;;;;;;;;5030368;28;20089;-88
2023/11/03 07:14:16;;;;;;;0.10;0.10;;;;;;;;;;5031045;28;20467;-88
2023/11/03 07:16:43;;;;;;;0.30;0.30;;;;;;;;;;5030862;28;20073;-90
2023/11/03 07:19:09;;;;;;;0.10;0.10;;;;;;;;;;4998041;28;20041;-90
2023/11/03 07:21:36;;;;;;;0.10;0.10;;;;;;;;;;4998018;28;20037;-90
2023/11/03 07:24:02;;;;;;;0.20;0.20;;;;;;;;;;5030811;28;20052;-90
2023/11/03 07:26:30;;;;;;;0.10;0.10;;;;;;;;;;5014205;28;20041;-90
2023/11/03 07:28:56;;;;;;;0.10;0.10;;;;;;;;;;4998148;28;20065;-90
2023/11/03 07:31:22;;;;;;;0.10;0.10;;;;;;;;;;4997878;28;20095;-90
2023/11/03 07:33:48;;;;;;;0.10;0.10;;;;;;;;;;4997988;28;20511;-91
2023/11/03 07:36:14;;;;;;;0.10;0.10;;;;;;;;;;5014173;28;20122;-90
2023/11/03 07:38:40;;;;;;;0.20;0.20;;;;;;;;;;5030446;28;20072;-91
2023/11/03 07:41:09;;;;;;;0.80;0.25;;;;;;;;;;5014419;28;20156;-90
2023/11/03 07:43:37;;;;;;;0.10;0.10;;;;;;;;;;4998268;28;20042;-91
2023/11/03 07:46:04;;;;;;;0.15;0.15;;;;;;;;;;4998261;28;20088;-90
2023/11/03 07:48:30;;;;;;;0.10;0.10;;;;;;;;;;5014069;28;20538;-90
2023/11/03 07:50:56;;;;;;;0.10;0.10;;;;;;;;;;5013983;28;20045;-89
2023/11/03 07:53:22;;;;;;;0.10;0.10;;;;;;;;;;4997588;28;20386;-89
2023/11/03 07:55:48;;;;;;;0.10;0.10;;;;;;;;;;5014821;28;20045;-92
2023/11/03 07:58:14;;;;;;;0.20;0.20;;;;;;;;;;5014214;28;20034;-90
2023/11/03 08:00:41;;;;;;;0.10;0.10;;;;;;;;;;4997961;28;20037;-90
2023/11/03 08:03:07;;;;;;;0.10;0.10;;;;;;;;;;5016781;28;20044;-92
2023/11/03 08:05:33;;;;;;;0.10;0.10;;;;;;;;;;5001753;28;20083;-91
2023/11/03 08:08:01;;;;;;;0.10;0.10;;;;;;;;;;5018106;28;20068;-90
2023/11/03 08:10:27;;;;;;;0.15;0.15;;;;;;;;;;5001070;28;20045;-91
2023/11/03 08:12:55;;;;;;;0.20;0.20;;;;;;;;;;4999743;28;20403;-90
2023/11/03 08:15:21;;;;;;;0.40;0.40;;;;;;;;;;5033191;28;20033;-89
2023/11/03 08:17:47;;;;;;;0.10;0.10;;;;;;;;;;5053315;28;20045;-88
2023/11/03 08:20:15;;;;;;;0.20;0.20;;;;;;;;;;5036840;28;20199;-89
2023/11/03 08:22:42;;;;;;;0.10;0.10;;;;;;;;;;5034177;28;20041;-89
2023/11/03 08:25:08;;;;;;;0.10;0.10;;;;;;;;;;5032609;28;20047;-89
2023/11/03 08:27:34;;;;;;;0.10;0.10;;;;;;;;;;5018093;28;20041;-89
2023/11/03 08:30:01;;;;;;;0.10;0.10;;;;;;;;;;5021318;28;20435;-89
2023/11/03 08:32:27;;;;;;;0.10;0.10;;;;;;;;;;5017088;28;20128;-89
2023/11/03 08:34:53;;;;;;;0.20;0.20;;;;;;;;;;5035484;28;20099;-89
2023/11/03 08:37:21;;;;;;;0.10;0.10;;;;;;;;;;5036477;28;20475;-89
2023/11/03 08:39:47;;;;;;;0.10;0.10;;;;;;;;;;5016671;28;20128;-89
2023/11/03 08:42:13;;;;;;;0.10;0.10;;;;;;;;;;5016785;28;20128;-89
2023/11/03 08:44:40;;;;;;;0.20;0.20;;;;;;;;;;5033040;28;20130;-89
2023/11/03 08:47:07;;;;;;;0.10;0.10;;;;;;;;;;5000668;28;20037;-89
2023/11/03 08:49:34;;;;;;;0.13;0.13;;;;;;;;;;5010446;28;20078;-89
2023/11/03 08:52:00;;;;;;;0.10;0.10;;;;;;;;;;5036669;28;20430;-89
2023/11/03 08:54:26;;;;;;;0.10;0.10;;;;;;;;;;5052643;28;20037;-91
2023/11/03 08:56:53;;;;;;;0.17;0.17;;;;;;;;;;5036307;28;20083;-92
2023/11/03 08:59:19;;;;;;;0.10;0.10;;;;;;;;;;5036953;28;20072;-90
2023/11/03 09:01:45;;;;;;;0.10;0.10;;;;;;;;;;5020659;28;20045;-93
2023/11/03 09:04:11;;;;;;;0.10;0.10;;;;;;;;;;5019385;28;20311;-91
2023/11/03 09:06:38;;;;;;;0.10;0.10;;;;;;;;;;5019502;28;20147;-91
2023/11/03 09:09:04;;;;;;;0.10;0.10;;;;;;;;;;5009413;28;20095;-91
2023/11/03 09:11:30;;;;;;;0.10;0.10;;;;;;;;;;4999981;28;20081;-91
2023/11/03 09:13:59;;;;;;;0.10;0.10;;;;;;;;;;5016181;28;20042;-92
2023/11/03 09:16:25;;;;;;;0.10;0.10;;;;;;;;;;5018477;28;20045;-92
2023/11/03 09:18:52;;;;;;;0.20;0.20;;;;;;;;;;5035791;28;20391;-91
2023/11/03 09:21:18;;;;;;;0.10;0.10;;;;;;;;;;5035876;28;20047;-89
2023/11/03 09:23:44;;;;;;;0.10;0.10;;;;;;;;;;5052388;28;20066;-89
2023/11/03 09:26:10;;;;;;;0.10;0.10;;;;;;;;;;5035902;28;20083;-90
2023/11/03 09:28:39;;;;;;;0.10;0.10;;;;;;;;;;5052046;28;20041;-89
2023/11/03 09:31:05;;;;;;;0.10;0.10;;;;;;;;;;5036080;28;20200;-89
2023/11/03 09:33:31;;;;;;;0.20;0.20;;;;;;;;;;5035168;28;20044;-87
2023/11/03 09:35:58;;;;;;;0.10;0.10;;;;;;;;;;5035477;28;20064;-87
2023/11/03 09:38:24;;;;;;;0.10;0.10;;;;;;;;;;5035448;28;20052;-89
2023/11/03 09:40:50;;;;;;;0.10;0.10;;;;;;;;;;5035434;28;20396;-87
2023/11/03 09:43:16;;;;;;;0.10;0.10;;;;;;;;;;5035073;28;20044;-87
2023/11/03 09:45:42;;;;;;;0.10;0.10;;;;;;;;;;5035323;28;20033;-88
2023/11/03 09:48:09;;;;;;;0.10;0.10;;;;;;;;;;5035431;28;20388;-87
2023/11/03 09:50:38;;;;;;;0.20;0.20;;;;;;;;;;5035216;28;20100;-87
2023/11/03 09:53:05;;;;;;;0.10;0.10;;;;;;;;;;5035441;28;20041;-90
2023/11/03 09:55:31;;;;;;;0.10;0.10;;;;;;;;;;5035222;28;20076;-88
2023/11/03 09:58:02;;;;;;;0.10;0.10;;;;;;;;;;5035085;28;20033;-93
2023/11/03 10:00:28;;;;;;;0.10;0.10;;;;;;;;;;5024184;28;20501;-90
2023/11/03 10:02:54;;;;;;;0.10;0.10;;;;;;;;;;5015144;28;20041;-90
2023/11/03 10:05:23;;;;;;;0.10;0.10;;;;;;;;;;5025715;28;20472;-89
2023/11/03 10:07:54;;;;;;;0.10;0.10;;;;;;;;;;5035310;28;20591;-91
2023/11/03 10:10:21;;;;;;;0.10;0.10;;;;;;;;;;5050107;28;20125;-91
2023/11/03 10:12:47;;;;;;;3.85;0.47;;;;;;;;;;5035135;28;20128;-90
2023/11/03 10:15:16;;;;;;;0.10;0.10;;;;;;;;;;5025638;28;20554;-91
2023/11/03 10:17:49;;;;;;;0.10;0.10;;;;;;;;;;5016530;28;20310;-95
2023/11/03 10:20:15;;;;;;;0.20;0.20;;;;;;;;;;5026966;28;20041;-92
2023/11/03 10:22:42;;;;;;;0.10;0.10;;;;;;;;;;5018434;28;20052;-91
2023/11/03 10:25:08;;;;;;;0.15;0.15;;;;;;;;;;5034321;28;20051;-89
2023/11/03 10:27:37;;;;;;;0.10;0.10;;;;;;;;;;5034393;28;20033;-90
2023/11/03 10:30:07;;;;;;;0.10;0.10;;;;;;;;;;5034258;28;20048;-89
2023/11/03 10:32:33;;;;;;;0.10;0.10;;;;;;;;;;5018202;28;20048;-89
2023/11/03 10:35:05;;;;;;;0.10;0.10;;;;;;;;;;5018043;28;20045;-89
2023/11/03 10:37:32;;;;;;;0.20;0.20;;;;;;;;;;5035175;28;20048;-88
2023/11/03 10:39:58;;;;;;;0.50;0.50;;;;;;;;;;5034139;28;20504;-89
2023/11/03 10:42:24;;;;;;;0.10;0.10;;;;;;;;;;5017812;28;20047;-88
2023/11/03 10:44:51;;;;;;;0.10;0.10;;;;;;;;;;5034142;28;20032;-89
2023/11/03 10:47:22;;;;;;;0.10;0.10;;;;;;;;;;5018032;28;20052;-89
2023/11/03 10:49:48;;;;;;;0.10;0.10;;;;;;;;;;5050538;28;20029;-89
2023/11/03 10:52:16;;;;;;;0.20;0.20;;;;;;;;;;5034314;28;20037;-89
2023/11/03 10:54:45;;;;;;;0.15;0.15;;;;;;;;;;5017670;28;20548;-90
2023/11/03 10:57:11;;;;;;;0.10;0.10;;;;;;;;;;5034230;28;20551;-89
2023/11/03 10:59:39;;;;;;;0.20;0.20;;;;;;;;;;5034000;28;20080;-89
2023/11/03 11:02:07;;;;;;;0.10;0.10;;;;;;;;;;5017943;28;20045;-91
2023/11/03 11:04:41;;;;;;;0.10;0.10;;;;;;;;;;5017719;28;20080;-93
2023/11/03 11:07:09;;;;;;;0.10;0.10;;;;;;;;;;5020191;28;20472;-91
2023/11/03 11:09:40;;;;;;;0.10;0.10;;;;;;;;;;5018041;28;20480;-92
2023/11/03 11:12:07;;;;;;;0.10;0.10;;;;;;;;;;5034202;28;20052;-91
2023/11/03 11:14:39;;;;;;;0.10;0.10;;;;;;;;;;5033924;28;20483;-90
2023/11/03 11:17:09;;;;;;;0.10;0.10;;;;;;;;;;5034641;28;20128;-91
2023/11/03 11:19:45;;;;;;;0.10;0.10;;;;;;;;;;5017495;28;20037;-90
2023/11/03 11:22:15;;;;;;;0.10;0.10;;;;;;;;;;5018163;28;20049;-90
2023/11/03 11:24:42;;;;;;;0.10;0.10;;;;;;;;;;5033908;28;20041;-90
2023/11/03 11:27:24;;;;;;;0.10;0.10;;;;;;;;;;5033541;28;20077;-92
2023/11/03 11:29:51;;;;;;;0.10;0.10;;;;;;;;;;4997883;28;20081;-90
2023/11/03 11:32:18;;;;;;;0.10;0.10;;;;;;;;;;4998565;28;20045;-91
2023/11/03 11:34:44;;;;;;;0.10;0.10;;;;;;;;;;5014736;28;20400;-91
2023/11/03 11:37:25;;;;;;;0.15;0.15;;;;;;;;;;5035209;28;20033;-91
2023/11/03 11:40:10;;;;;;;0.10;0.10;;;;;;;;;;5017356;28;20068;-90
2023/11/03 11:42:44;;;;;;;0.10;0.10;;;;;;;;;;5018186;28;20049;-90
2023/11/03 11:45:10;;;;;;;0.10;0.10;;;;;;;;;;5002058;28;20038;-91
2023/11/03 11:47:38;;;;;;;0.10;0.10;;;;;;;;;;5001894;28;20492;-91
2023/11/03 11:50:05;;;;;;;0.20;0.20;;;;;;;;;;5003408;28;20423;-91
2023/11/03 11:52:31;;;;;;;0.10;0.10;;;;;;;;;;5037800;28;20049;-89
2023/11/03 11:54:57;;;;;;;0.20;0.20;;;;;;;;;;5034841;28;20043;-88
2023/11/03 11:57:25;;;;;;;0.10;0.10;;;;;;;;;;5034768;28;20059;-89
2023/11/03 11:59:51;;;;;;;0.10;0.10;;;;;;;;;;5017781;28;20045;-88
2023/11/03 12:02:18;;;;;;;0.20;0.20;;;;;;;;;;5034077;28;20045;-87
2023/11/03 12:04:48;;;;;;;0.10;0.10;;;;;;;;;;5033898;28;20055;-87
2023/11/03 12:07:14;;;;;;;0.10;0.10;;;;;;;;;;5017636;28;20041;-87
2023/11/03 12:09:41;;;;;;;0.10;0.10;;;;;;;;;;5000990;28;20555;-87
2023/11/03 12:12:08;;;;;;;0.10;0.10;;;;;;;;;;5033633;28;20511;-87
2023/11/03 12:14:34;;;;;;;0.10;0.10;;;;;;;;;;5017174;28;20112;-87
2023/11/03 12:17:00;;;;;;;0.10;0.10;;;;;;;;;;5033562;28;20124;-87
2023/11/03 12:19:26;;;;;;;0.10;0.10;;;;;;;;;;5000866;28;20048;-87
2023/11/03 12:21:52;;;;;;;0.10;0.10;;;;;;;;;;5001105;28;20124;-90
2023/11/03 12:24:18;;;;;;;0.10;0.10;;;;;;;;;;5016944;28;20567;-91
2023/11/03 12:26:45;;;;;;;0.20;0.20;;;;;;;;;;5017352;28;20125;-90
2023/11/03 12:29:44;;;;;;;0.10;0.10;;;;;;;;;;5017225;28;20048;-88
2023/11/03 12:32:11;;;;;;;0.10;0.10;;;;;;;;;;5011879;28;20124;-88
2023/11/03 12:34:37;;;;;;;0.10;0.10;;;;;;;;;;5033157;28;20041;-88
2023/11/03 12:37:04;;;;;;;0.10;0.10;;;;;;;;;;5016800;28;20048;-88
2023/11/03 12:39:31;;;;;;;0.10;0.10;;;;;;;;;;5000612;28;20052;-88
2023/11/03 12:42:04;;;;;;;0.10;0.10;;;;;;;;;;5000572;28;20559;-87
2023/11/03 12:44:31;;;;;;;0.10;0.10;;;;;;;;;;5000483;28;20044;-88
2023/11/03 12:47:00;;;;;;;0.10;0.10;;;;;;;;;;5033164;28;20496;-88
2023/11/03 12:49:26;;;;;;;0.10;0.10;;;;;;;;;;5017147;28;20128;-92
2023/11/03 12:51:53;;;;;;;0.10;0.10;;;;;;;;;;5000935;28;20397;-88
2023/11/03 12:54:21;;;;;;;0.20;0.20;;;;;;;;;;4999143;28;20034;-88
2023/11/03 12:56:49;;;;;;;0.10;0.10;;;;;;;;;;5016507;28;20489;-90
2023/11/03 12:59:18;;;;;;;0.10;0.10;;;;;;;;;;5017987;28;20502;-88
2023/11/03 13:01:44;;;;;;;0.10;0.10;;;;;;;;;;5035918;28;20033;-89
2023/11/03 13:04:13;;;;;;;0.10;0.10;;;;;;;;;;5052581;28;20041;-90
2023/11/03 13:06:39;;;;;;;0.10;0.10;;;;;;;;;;5036295;28;20484;-88
2023/11/03 13:09:13;;;;;;;0.20;0.20;;;;;;;;;;5035670;28;20496;-89
2023/11/03 13:11:40;;;;;;;0.10;0.10;;;;;;;;;;5020437;28;20135;-88
2023/11/03 13:14:08;;;;;;;0.30;0.30;;;;;;;;;;5019038;28;20041;-87
2023/11/03 13:16:34;;;;;;;0.10;0.10;;;;;;;;;;5036158;28;20083;-88
2023/11/03 13:19:00;;;;;;;0.10;0.10;;;;;;;;;;5035851;28;20075;-88
2023/11/03 13:21:26;;;;;;;0.10;0.10;;;;;;;;;;5035138;28;20041;-88
2023/11/03 13:23:52;;;;;;;0.10;0.10;;;;;;;;;;5022462;28;20045;-88
2023/11/03 13:26:18;;;;;;;0.10;0.10;;;;;;;;;;5015162;28;20048;-88
2023/11/03 13:28:44;;;;;;;0.10;0.10;;;;;;;;;;5011144;28;20522;-88
2023/11/03 13:31:12;;;;;;;0.10;0.10;;;;;;;;;;5035589;28;20033;-88
2023/11/03 13:33:38;;;;;;;0.52;0.20;;;;;;;;;;5035629;28;20048;-88
2023/11/03 13:36:08;;;;;;;0.10;0.10;;;;;;;;;;5052002;28;20085;-88
2023/11/03 13:38:34;;;;;;;0.10;0.10;;;;;;;;;;5035452;28;20033;-91
2023/11/03 13:41:01;;;;;;;0.10;0.10;;;;;;;;;;5035208;28;20044;-88
2023/11/03 13:43:29;;;;;;;2.92;0.45;;;;;;;;;;5035480;28;20040;-87
2023/11/03 13:45:57;;;;;;;0.10;0.10;;;;;;;;;;5035685;28;20060;-87
2023/11/03 13:48:23;;;;;;;0.10;0.10;;;;;;;;;;5035618;28;20179;-88
2023/11/03 13:50:49;;;;;;;0.10;0.10;;;;;;;;;;5035096;28;20543;-88
2023/11/03 13:53:16;;;;;;;0.10;0.10;;;;;;;;;;5035548;28;20098;-88
2023/11/03 13:55:42;;;;;;;0.10;0.10;;;;;;;;;;5035237;28;20045;-88
2023/11/03 13:58:08;;;;;;;0.10;0.10;;;;;;;;;;5035209;28;20079;-87
2023/11/03 14:00:35;;;;;;;0.10;0.10;;;;;;;;;;5050628;28;20037;-88
2023/11/03 14:03:04;;;;;;;0.10;0.10;;;;;;;;;;5051586;28;20462;-87
2023/11/03 14:05:30;;;;;;;0.20;0.20;;;;;;;;;;5035271;28;20045;-87
2023/11/03 14:07:57;;;;;;;0.10;0.10;;;;;;;;;;5034768;28;20557;-87
2023/11/03 14:10:23;;;;;;;0.10;0.10;;;;;;;;;;5034426;28;20500;-87
2023/11/03 14:12:50;;;;;;;0.10;0.10;;;;;;;;;;5034943;28;20057;-88
2023/11/03 14:15:18;;;;;;;4.28;0.35;;;;;;;;;;5030948;28;20120;-87
2023/11/03 14:17:45;;;;;;;0.10;0.10;;;;;;;;;;5015048;28;20430;-87
2023/11/03 14:20:13;;;;;;;0.30;0.30;;;;;;;;;;4999916;28;20037;-88
2023/11/03 14:22:42;;;;;;;0.20;0.20;;;;;;;;;;5051211;28;20052;-87
2023/11/03 14:25:08;;;;;;;0.10;0.10;;;;;;;;;;5016975;28;20123;-87
2023/11/03 14:27:35;;;;;;;0.20;0.20;;;;;;;;;;5034472;28;20236;-89
2023/11/03 14:30:01;;;;;;;0.10;0.10;;;;;;;;;;5034424;28;20047;-89
2023/11/03 14:32:27;;;;;;;0.10;0.10;;;;;;;;;;5034500;28;20040;-89
2023/11/03 14:34:53;;;;;;;0.10;0.10;;;;;;;;;;5033933;28;20561;-88
2023/11/03 14:37:21;;;;;;;0.20;0.20;;;;;;;;;;5034255;28;20083;-88
2023/11/03 14:39:47;;;;;;;0.10;0.10;;;;;;;;;;5034415;28;20135;-89
2023/11/03 14:42:16;;;;;;;0.10;0.10;;;;;;;;;;5034473;28;20131;-92